sensor_id;sensor_type;location;lat;lon;timestamp;temperature;humidity
4433;DHT22;2229;48.708;9.706;2023-12-04T00:01:47;-3.30;98.10
4433;DHT22;2229;48.708;9.706;2023-12-04T00:04:16;-3.30;98.10
4433;DHT22;2229;48.708;9.706;2023-12-04T00:06:43;-3.20;98.10
4433;DHT22;2229;48.708;9.706;2023-12-04T00:09:10;-3.20;98.00
4433;DHT22;2229;48.708;9.706;2023-12-04T00:11:37;-3.30;98.00
4433;DHT22;2229;48.708;9.706;2023-12-04T00:14:05;-3.30;97.90
4433;DHT22;2229;48.708;9.706;2023-12-04T00:16:33;-3.30;97.90
4433;DHT22;2229;48.708;9.706;2023-12-04T00:19:01;-3.30;97.90
4433;DHT22;2229;48.708;9.706;2023-12-04T00:21:30;-3.20;97.90
4433;DHT22;2229;48.708;9.706;2023-12-04T00:23:57;-3.20;97.90
4433;DHT22;2229;48.708;9.706;2023-12-04T00:26:24;-3.20;97.80
4433;DHT22;2229;48.708;9.706;2023-12-04T00:28:51;-3.20;97.80
4433;DHT22;2229;48.708;9.706;2023-12-04T00:31:19;-3.20;97.70
4433;DHT22;2229;48.708;9.706;2023-12-04T00:33:46;-3.30;97.60
4433;DHT22;2229;48.708;9.706;2023-12-04T00:36:14;-3.30;97.60
4433;DHT22;2229;48.708;9.706;2023-12-04T00:38:43;-3.30;97.60
4433;DHT22;2229;48.708;9.706;2023-12-04T00:41:11;-3.30;97.70
4433;DHT22;2229;48.708;9.706;2023-12-04T00:43:38;-3.40;97.50
4433;DHT22;2229;48.708;9.706;2023-12-04T00:46:06;-3.40;97.50
4433;DHT22;2229;48.708;9.706;2023-12-04T00:48:33;-3.40;97.50
4433;DHT22;2229;48.708;9.706;2023-12-04T00:51:00;-3.40;97.50
4433;DHT22;2229;48.708;9.706;2023-12-04T00:53:27;-3.60;97.40
4433;DHT22;2229;48.708;9.706;2023-12-04T00:55:56;-3.50;97.50
4433;DHT22;2229;48.708;9.706;2023-12-04T00:58:23;-3.50;97.50
4433;DHT22;2229;48.708;9.706;2023-12-04T01:00:50;-3.50;97.40
4433;DHT22;2229;48.708;9.706;2023-12-04T01:03:18;-3.50;97.40
4433;DHT22;2229;48.708;9.706;2023-12-04T01:05:45;-3.50;97.40
4433;DHT22;2229;48.708;9.706;2023-12-04T01:08:12;-3.50;97.40
4433;DHT22;2229;48.708;9.706;2023-12-04T01:10:39;-3.50;97.50
4433;DHT22;2229;48.708;9.706;2023-12-04T01:13:09;-3.50;97.50
4433;DHT22;2229;48.708;9.706;2023-12-04T01:15:36;-3.50;97.40
4433;DHT22;2229;48.708;9.706;2023-12-04T01:18:04;-3.60;97.30
4433;DHT22;2229;48.708;9.706;2023-12-04T01:20:31;-3.60;97.20
4433;DHT22;2229;48.708;9.706;2023-12-04T01:22:59;-3.60;97.30
4433;DHT22;2229;48.708;9.706;2023-12-04T01:25:26;-3.70;97.30
4433;DHT22;2229;48.708;9.706;2023-12-04T01:27:53;-3.70;97.20
4433;DHT22;2229;48.708;9.706;2023-12-04T01:30:22;-3.70;97.20
4433;DHT22;2229;48.708;9.706;2023-12-04T01:32:49;-3.80;97.20
4433;DHT22;2229;48.708;9.706;2023-12-04T01:35:16;-3.90;97.10
4433;DHT22;2229;48.708;9.706;2023-12-04T01:37:43;-3.90;97.10
4433;DHT22;2229;48.708;9.706;2023-12-04T01:40:11;-3.90;97.20
4433;DHT22;2229;48.708;9.706;2023-12-04T01:42:39;-3.90;97.30
4433;DHT22;2229;48.708;9.706;2023-12-04T01:45:07;-3.90;97.30
4433;DHT22;2229;48.708;9.706;2023-12-04T01:47:36;-3.90;97.30
4433;DHT22;2229;48.708;9.706;2023-12-04T01:50:05;-3.60;97.50
4433;DHT22;2229;48.708;9.706;2023-12-04T01:52:32;-3.90;97.20
4433;DHT22;2229;48.708;9.706;2023-12-04T01:55:00;-3.80;97.30
4433;DHT22;2229;48.708;9.706;2023-12-04T01:57:27;-3.80;97.30
4433;DHT22;2229;48.708;9.706;2023-12-04T01:59:54;-3.70;97.30
4433;DHT22;2229;48.708;9.706;2023-12-04T02:02:22;-3.70;97.20
4433;DHT22;2229;48.708;9.706;2023-12-04T02:04:50;-3.60;97.40
4433;DHT22;2229;48.708;9.706;2023-12-04T02:07:17;-3.60;97.30
4433;DHT22;2229;48.708;9.706;2023-12-04T02:09:44;-3.60;97.20
4433;DHT22;2229;48.708;9.706;2023-12-04T02:12:12;-3.60;97.10
4433;DHT22;2229;48.708;9.706;2023-12-04T02:14:39;-3.60;97.10
4433;DHT22;2229;48.708;9.706;2023-12-04T02:17:08;-3.60;97.00
4433;DHT22;2229;48.708;9.706;2023-12-04T02:19:36;-3.60;96.90
4433;DHT22;2229;48.708;9.706;2023-12-04T02:22:04;-3.60;96.90
4433;DHT22;2229;48.708;9.706;2023-12-04T02:24:33;-3.60;96.80
4433;DHT22;2229;48.708;9.706;2023-12-04T02:27:07;-3.60;96.70
4433;DHT22;2229;48.708;9.706;2023-12-04T02:29:41;-3.60;96.70
4433;DHT22;2229;48.708;9.706;2023-12-04T02:32:11;-3.60;96.60
4433;DHT22;2229;48.708;9.706;2023-12-04T02:34:44;-3.70;96.50
4433;DHT22;2229;48.708;9.706;2023-12-04T02:37:13;-3.70;96.50
4433;DHT22;2229;48.708;9.706;2023-12-04T02:39:42;-3.70;96.30
4433;DHT22;2229;48.708;9.706;2023-12-04T02:42:09;-3.70;96.20
4433;DHT22;2229;48.708;9.706;2023-12-04T02:44:39;-3.80;96.10
4433;DHT22;2229;48.708;9.706;2023-12-04T02:47:06;-3.80;96.10
4433;DHT22;2229;48.708;9.706;2023-12-04T02:49:33;-3.90;96.00
4433;DHT22;2229;48.708;9.706;2023-12-04T02:52:01;-3.90;96.00
4433;DHT22;2229;48.708;9.706;2023-12-04T02:54:28;-3.90;96.00
4433;DHT22;2229;48.708;9.706;2023-12-04T02:56:57;-3.90;96.00
4433;DHT22;2229;48.708;9.706;2023-12-04T02:59:24;-3.90;95.90
4433;DHT22;2229;48.708;9.706;2023-12-04T03:01:51;-3.90;95.80
4433;DHT22;2229;48.708;9.706;2023-12-04T03:04:19;-3.90;95.90
4433;DHT22;2229;48.708;9.706;2023-12-04T03:06:46;-4.00;95.70
4433;DHT22;2229;48.708;9.706;2023-12-04T03:09:13;-4.00;95.70
4433;DHT22;2229;48.708;9.706;2023-12-04T03:11:41;-4.00;95.70
4433;DHT22;2229;48.708;9.706;2023-12-04T03:14:09;-4.10;95.60
4433;DHT22;2229;48.708;9.706;2023-12-04T03:16:37;-4.10;95.50
4433;DHT22;2229;48.708;9.706;2023-12-04T03:19:04;-4.20;95.40
4433;DHT22;2229;48.708;9.706;2023-12-04T03:21:31;-4.40;95.10
4433;DHT22;2229;48.708;9.706;2023-12-04T03:23:58;-4.50;95.10
4433;DHT22;2229;48.708;9.706;2023-12-04T03:26:25;-4.60;95.30
4433;DHT22;2229;48.708;9.706;2023-12-04T03:28:54;-4.60;95.40
4433;DHT22;2229;48.708;9.706;2023-12-04T03:31:23;-4.70;95.30
4433;DHT22;2229;48.708;9.706;2023-12-04T03:33:51;-4.80;95.30
4433;DHT22;2229;48.708;9.706;2023-12-04T03:36:18;-4.80;95.20
4433;DHT22;2229;48.708;9.706;2023-12-04T03:38:45;-4.90;95.30
4433;DHT22;2229;48.708;9.706;2023-12-04T03:41:16;-4.90;95.40
4433;DHT22;2229;48.708;9.706;2023-12-04T03:43:44;-4.90;95.60
4433;DHT22;2229;48.708;9.706;2023-12-04T03:46:11;-4.90;95.60
4433;DHT22;2229;48.708;9.706;2023-12-04T03:48:39;-4.90;95.60
4433;DHT22;2229;48.708;9.706;2023-12-04T03:51:07;-4.90;95.70
4433;DHT22;2229;48.708;9.706;2023-12-04T03:53:35;-4.90;95.70
4433;DHT22;2229;48.708;9.706;2023-12-04T03:56:02;-4.90;95.60
4433;DHT22;2229;48.708;9.706;2023-12-04T03:58:30;-5.00;95.60
4433;DHT22;2229;48.708;9.706;2023-12-04T04:00:57;-5.00;95.60
4433;DHT22;2229;48.708;9.706;2023-12-04T04:03:24;-5.00;95.50
4433;DHT22;2229;48.708;9.706;2023-12-04T04:05:53;-5.00;95.50
4433;DHT22;2229;48.708;9.706;2023-12-04T04:08:20;-5.10;95.80
4433;DHT22;2229;48.708;9.706;2023-12-04T04:10:47;-5.10;95.50
4433;DHT22;2229;48.708;9.706;2023-12-04T04:13:14;-5.10;95.40
4433;DHT22;2229;48.708;9.706;2023-12-04T04:15:42;-5.20;95.30
4433;DHT22;2229;48.708;9.706;2023-12-04T04:18:09;-5.20;95.30
4433;DHT22;2229;48.708;9.706;2023-12-04T04:20:36;-5.30;95.30
4433;DHT22;2229;48.708;9.706;2023-12-04T04:23:05;-5.40;95.20
4433;DHT22;2229;48.708;9.706;2023-12-04T04:25:32;-5.30;95.60
4433;DHT22;2229;48.708;9.706;2023-12-04T04:27:59;-5.40;95.20
4433;DHT22;2229;48.708;9.706;2023-12-04T04:30:26;-5.40;95.20
4433;DHT22;2229;48.708;9.706;2023-12-04T04:32:53;-5.40;95.20
4433;DHT22;2229;48.708;9.706;2023-12-04T04:35:20;-5.40;95.30
4433;DHT22;2229;48.708;9.706;2023-12-04T04:37:47;-5.40;95.30
4433;DHT22;2229;48.708;9.706;2023-12-04T04:40:31;-5.40;95.30
4433;DHT22;2229;48.708;9.706;2023-12-04T04:42:59;-5.40;95.20
4433;DHT22;2229;48.708;9.706;2023-12-04T04:45:26;-5.40;95.20
4433;DHT22;2229;48.708;9.706;2023-12-04T04:47:53;-5.40;95.20
4433;DHT22;2229;48.708;9.706;2023-12-04T04:50:21;-5.40;95.20
4433;DHT22;2229;48.708;9.706;2023-12-04T04:52:48;-5.40;95.20
4433;DHT22;2229;48.708;9.706;2023-12-04T04:55:15;-5.40;95.20
4433;DHT22;2229;48.708;9.706;2023-12-04T04:57:43;-5.40;95.10
4433;DHT22;2229;48.708;9.706;2023-12-04T05:00:11;-5.40;95.10
4433;DHT22;2229;48.708;9.706;2023-12-04T05:02:38;-5.40;95.10
4433;DHT22;2229;48.708;9.706;2023-12-04T05:05:06;-5.40;95.20
4433;DHT22;2229;48.708;9.706;2023-12-04T05:07:33;-5.40;95.20
4433;DHT22;2229;48.708;9.706;2023-12-04T05:10:00;-5.40;95.20
4433;DHT22;2229;48.708;9.706;2023-12-04T05:12:28;-5.40;95.30
4433;DHT22;2229;48.708;9.706;2023-12-04T05:14:56;-4.60;95.70
4433;DHT22;2229;48.708;9.706;2023-12-04T05:17:23;-5.30;95.40
4433;DHT22;2229;48.708;9.706;2023-12-04T05:19:51;-5.30;95.40
4433;DHT22;2229;48.708;9.706;2023-12-04T05:22:18;-5.30;95.40
4433;DHT22;2229;48.708;9.706;2023-12-04T05:24:45;-5.30;95.40
4433;DHT22;2229;48.708;9.706;2023-12-04T05:27:12;-5.30;95.50
4433;DHT22;2229;48.708;9.706;2023-12-04T05:29:39;-5.20;95.50
4433;DHT22;2229;48.708;9.706;2023-12-04T05:32:08;-5.20;95.60
4433;DHT22;2229;48.708;9.706;2023-12-04T05:34:35;-5.30;95.50
4433;DHT22;2229;48.708;9.706;2023-12-04T05:37:03;-5.30;95.80
4433;DHT22;2229;48.708;9.706;2023-12-04T05:39:31;-5.20;95.60
4433;DHT22;2229;48.708;9.706;2023-12-04T05:41:58;-5.30;95.50
4433;DHT22;2229;48.708;9.706;2023-12-04T05:44:25;-5.20;95.50
4433;DHT22;2229;48.708;9.706;2023-12-04T05:46:52;-5.20;95.60
4433;DHT22;2229;48.708;9.706;2023-12-04T05:49:20;-5.20;95.60
4433;DHT22;2229;48.708;9.706;2023-12-04T05:51:48;-5.20;95.70
4433;DHT22;2229;48.708;9.706;2023-12-04T05:54:15;-5.10;95.60
4433;DHT22;2229;48.708;9.706;2023-12-04T05:56:42;-5.10;95.50
4433;DHT22;2229;48.708;9.706;2023-12-04T05:59:09;-5.20;95.70
4433;DHT22;2229;48.708;9.706;2023-12-04T06:01:37;-5.20;95.30
4433;DHT22;2229;48.708;9.706;2023-12-04T06:04:04;-5.20;95.40
4433;DHT22;2229;48.708;9.706;2023-12-04T06:06:33;-5.20;95.40
4433;DHT22;2229;48.708;9.706;2023-12-04T06:09:00;-5.20;95.30
4433;DHT22;2229;48.708;9.706;2023-12-04T06:11:27;-5.20;95.30
4433;DHT22;2229;48.708;9.706;2023-12-04T06:13:54;-5.20;95.70
4433;DHT22;2229;48.708;9.706;2023-12-04T06:16:22;-5.20;95.30
4433;DHT22;2229;48.708;9.706;2023-12-04T06:18:49;-5.20;95.40
4433;DHT22;2229;48.708;9.706;2023-12-04T06:21:18;-5.20;95.30
4433;DHT22;2229;48.708;9.706;2023-12-04T06:23:48;-5.20;95.60
4433;DHT22;2229;48.708;9.706;2023-12-04T06:26:15;-5.20;95.30
4433;DHT22;2229;48.708;9.706;2023-12-04T06:28:43;-5.30;95.10
4433;DHT22;2229;48.708;9.706;2023-12-04T06:31:12;-5.30;95.00
4433;DHT22;2229;48.708;9.706;2023-12-04T06:33:40;-5.30;95.10
4433;DHT22;2229;48.708;9.706;2023-12-04T06:36:08;-5.20;95.30
4433;DHT22;2229;48.708;9.706;2023-12-04T06:38:39;-5.30;95.30
4433;DHT22;2229;48.708;9.706;2023-12-04T06:41:09;-5.30;95.40
4433;DHT22;2229;48.708;9.706;2023-12-04T06:43:37;-5.20;95.50
4433;DHT22;2229;48.708;9.706;2023-12-04T06:46:06;-5.20;95.60
4433;DHT22;2229;48.708;9.706;2023-12-04T06:48:37;-5.10;95.70
4433;DHT22;2229;48.708;9.706;2023-12-04T06:51:05;-5.00;95.80
4433;DHT22;2229;48.708;9.706;2023-12-04T06:53:32;-4.70;95.90
4433;DHT22;2229;48.708;9.706;2023-12-04T06:55:59;-4.90;95.90
4433;DHT22;2229;48.708;9.706;2023-12-04T06:58:28;-4.80;95.90
4433;DHT22;2229;48.708;9.706;2023-12-04T07:00:55;-4.70;95.90
4433;DHT22;2229;48.708;9.706;2023-12-04T07:03:22;-4.70;95.90
4433;DHT22;2229;48.708;9.706;2023-12-04T07:05:49;-4.70;96.10
4433;DHT22;2229;48.708;9.706;2023-12-04T07:08:16;-4.70;95.90
4433;DHT22;2229;48.708;9.706;2023-12-04T07:10:43;-4.60;95.70
4433;DHT22;2229;48.708;9.706;2023-12-04T07:13:10;-4.60;95.70
4433;DHT22;2229;48.708;9.706;2023-12-04T07:15:40;-4.60;95.70
4433;DHT22;2229;48.708;9.706;2023-12-04T07:18:07;-4.60;95.80
4433;DHT22;2229;48.708;9.706;2023-12-04T07:20:34;-4.50;95.80
4433;DHT22;2229;48.708;9.706;2023-12-04T07:23:02;-4.50;96.00
4433;DHT22;2229;48.708;9.706;2023-12-04T07:25:29;-4.40;95.70
4433;DHT22;2229;48.708;9.706;2023-12-04T07:27:56;-4.40;95.60
4433;DHT22;2229;48.708;9.706;2023-12-04T07:30:24;-4.40;95.80
4433;DHT22;2229;48.708;9.706;2023-12-04T07:32:53;-4.50;95.20
4433;DHT22;2229;48.708;9.706;2023-12-04T07:35:21;-4.50;95.10
4433;DHT22;2229;48.708;9.706;2023-12-04T07:37:48;-4.50;95.10
4433;DHT22;2229;48.708;9.706;2023-12-04T07:40:16;-4.50;95.10
4433;DHT22;2229;48.708;9.706;2023-12-04T07:42:49;-4.50;95.20
4433;DHT22;2229;48.708;9.706;2023-12-04T07:45:17;-4.50;95.50
4433;DHT22;2229;48.708;9.706;2023-12-04T07:47:44;-3.80;95.50
4433;DHT22;2229;48.708;9.706;2023-12-04T07:50:13;-4.50;95.00
4433;DHT22;2229;48.708;9.706;2023-12-04T07:52:41;-4.50;95.10
4433;DHT22;2229;48.708;9.706;2023-12-04T07:55:08;-4.50;95.20
4433;DHT22;2229;48.708;9.706;2023-12-04T07:57:35;-4.50;95.30
4433;DHT22;2229;48.708;9.706;2023-12-04T08:00:03;-4.50;95.30
4433;DHT22;2229;48.708;9.706;2023-12-04T08:02:30;-4.40;95.40
4433;DHT22;2229;48.708;9.706;2023-12-04T08:04:58;-4.40;95.40
4433;DHT22;2229;48.708;9.706;2023-12-04T08:07:26;-4.40;95.40
4433;DHT22;2229;48.708;9.706;2023-12-04T08:09:53;-4.40;95.50
4433;DHT22;2229;48.708;9.706;2023-12-04T08:12:20;-4.40;95.50
4433;DHT22;2229;48.708;9.706;2023-12-04T08:14:48;-4.30;95.60
4433;DHT22;2229;48.708;9.706;2023-12-04T08:17:15;-4.30;95.70
4433;DHT22;2229;48.708;9.706;2023-12-04T08:19:42;-4.20;95.80
4433;DHT22;2229;48.708;9.706;2023-12-04T08:22:10;-4.10;95.80
4433;DHT22;2229;48.708;9.706;2023-12-04T08:24:38;-4.10;95.70
4433;DHT22;2229;48.708;9.706;2023-12-04T08:27:05;-4.00;95.80
4433;DHT22;2229;48.708;9.706;2023-12-04T08:29:33;-3.90;95.90
4433;DHT22;2229;48.708;9.706;2023-12-04T08:32:01;-3.90;96.10
4433;DHT22;2229;48.708;9.706;2023-12-04T08:34:30;-3.80;95.80
4433;DHT22;2229;48.708;9.706;2023-12-04T08:36:57;-3.70;95.90
4433;DHT22;2229;48.708;9.706;2023-12-04T08:39:24;-3.70;95.70
4433;DHT22;2229;48.708;9.706;2023-12-04T08:41:53;-3.60;95.70
4433;DHT22;2229;48.708;9.706;2023-12-04T08:44:20;-3.60;95.60
4433;DHT22;2229;48.708;9.706;2023-12-04T08:46:47;-3.60;95.50
4433;DHT22;2229;48.708;9.706;2023-12-04T08:49:14;-3.50;95.40
4433;DHT22;2229;48.708;9.706;2023-12-04T08:51:42;-3.40;95.50
4433;DHT22;2229;48.708;9.706;2023-12-04T08:54:09;-3.40;95.60
4433;DHT22;2229;48.708;9.706;2023-12-04T08:56:36;-3.30;95.50
4433;DHT22;2229;48.708;9.706;2023-12-04T08:59:05;-3.20;95.50
4433;DHT22;2229;48.708;9.706;2023-12-04T09:01:32;-3.20;95.40
4433;DHT22;2229;48.708;9.706;2023-12-04T09:03:59;-3.20;95.10
4433;DHT22;2229;48.708;9.706;2023-12-04T09:06:26;-3.10;95.00
4433;DHT22;2229;48.708;9.706;2023-12-04T09:08:54;-3.10;95.00
4433;DHT22;2229;48.708;9.706;2023-12-04T09:11:22;-3.10;94.90
4433;DHT22;2229;48.708;9.706;2023-12-04T09:13:49;-3.10;94.70
4433;DHT22;2229;48.708;9.706;2023-12-04T09:16:18;-3.10;94.80
4433;DHT22;2229;48.708;9.706;2023-12-04T09:18:45;-3.10;94.80
4433;DHT22;2229;48.708;9.706;2023-12-04T09:21:13;-3.00;94.60
4433;DHT22;2229;48.708;9.706;2023-12-04T09:23:40;-3.00;94.50
4433;DHT22;2229;48.708;9.706;2023-12-04T09:26:07;-3.10;94.30
4433;DHT22;2229;48.708;9.706;2023-12-04T09:28:35;-3.10;94.30
4433;DHT22;2229;48.708;9.706;2023-12-04T09:31:03;-3.10;94.40
4433;DHT22;2229;48.708;9.706;2023-12-04T09:33:32;-3.10;94.50
4433;DHT22;2229;48.708;9.706;2023-12-04T09:36:00;-3.10;94.70
4433;DHT22;2229;48.708;9.706;2023-12-04T09:38:27;-3.00;94.40
4433;DHT22;2229;48.708;9.706;2023-12-04T09:40:56;-3.10;94.30
4433;DHT22;2229;48.708;9.706;2023-12-04T09:43:28;-3.00;94.60
4433;DHT22;2229;48.708;9.706;2023-12-04T09:45:57;-2.90;94.90
4433;DHT22;2229;48.708;9.706;2023-12-04T09:48:26;-2.70;95.30
4433;DHT22;2229;48.708;9.706;2023-12-04T09:50:55;-2.60;95.30
4433;DHT22;2229;48.708;9.706;2023-12-04T09:53:22;-1.80;95.40
4433;DHT22;2229;48.708;9.706;2023-12-04T09:55:51;-2.40;94.90
4433;DHT22;2229;48.708;9.706;2023-12-04T09:58:19;-2.40;94.80
4433;DHT22;2229;48.708;9.706;2023-12-04T10:00:47;-2.40;94.50
4433;DHT22;2229;48.708;9.706;2023-12-04T10:03:15;-2.40;94.30
4433;DHT22;2229;48.708;9.706;2023-12-04T10:05:44;-2.40;94.60
4433;DHT22;2229;48.708;9.706;2023-12-04T10:08:13;-2.40;94.50
4433;DHT22;2229;48.708;9.706;2023-12-04T10:10:43;-2.30;94.60
4433;DHT22;2229;48.708;9.706;2023-12-04T10:13:12;-2.30;94.70
4433;DHT22;2229;48.708;9.706;2023-12-04T10:15:46;-2.30;94.40
4433;DHT22;2229;48.708;9.706;2023-12-04T10:18:25;-2.30;94.40
4433;DHT22;2229;48.708;9.706;2023-12-04T10:20:53;-2.20;94.40
4433;DHT22;2229;48.708;9.706;2023-12-04T10:23:23;-2.20;94.40
4433;DHT22;2229;48.708;9.706;2023-12-04T10:26:03;-2.10;94.50
4433;DHT22;2229;48.708;9.706;2023-12-04T10:28:30;-2.10;94.50
4433;DHT22;2229;48.708;9.706;2023-12-04T10:30:57;-2.00;94.60
4433;DHT22;2229;48.708;9.706;2023-12-04T10:33:25;-1.90;94.70
4433;DHT22;2229;48.708;9.706;2023-12-04T10:35:53;-1.90;94.60
4433;DHT22;2229;48.708;9.706;2023-12-04T10:38:22;-1.80;94.60
4433;DHT22;2229;48.708;9.706;2023-12-04T10:40:49;-1.60;94.60
4433;DHT22;2229;48.708;9.706;2023-12-04T10:43:18;-1.40;94.50
4433;DHT22;2229;48.708;9.706;2023-12-04T10:45:48;-0.90;95.00
4433;DHT22;2229;48.708;9.706;2023-12-04T10:48:18;-0.40;95.00
4433;DHT22;2229;48.708;9.706;2023-12-04T10:50:47;0.00;94.50
4433;DHT22;2229;48.708;9.706;2023-12-04T10:53:16;0.00;93.20
4433;DHT22;2229;48.708;9.706;2023-12-04T10:55:45;0.00;92.80
4433;DHT22;2229;48.708;9.706;2023-12-04T10:58:15;-0.10;92.20
4433;DHT22;2229;48.708;9.706;2023-12-04T11:00:44;-0.30;91.80
4433;DHT22;2229;48.708;9.706;2023-12-04T11:03:16;-0.40;91.70
4433;DHT22;2229;48.708;9.706;2023-12-04T11:05:49;-0.50;91.50
4433;DHT22;2229;48.708;9.706;2023-12-04T11:08:19;-0.70;91.50
4433;DHT22;2229;48.708;9.706;2023-12-04T11:10:54;-0.80;91.40
4433;DHT22;2229;48.708;9.706;2023-12-04T11:13:27;-0.90;91.40
4433;DHT22;2229;48.708;9.706;2023-12-04T11:15:59;-1.00;91.40
4433;DHT22;2229;48.708;9.706;2023-12-04T11:18:28;-1.10;91.60
4433;DHT22;2229;48.708;9.706;2023-12-04T11:20:59;-1.10;91.90
4433;DHT22;2229;48.708;9.706;2023-12-04T11:23:27;-1.10;91.90
4433;DHT22;2229;48.708;9.706;2023-12-04T11:25:57;-1.10;92.10
4433;DHT22;2229;48.708;9.706;2023-12-04T11:28:26;-1.00;92.20
4433;DHT22;2229;48.708;9.706;2023-12-04T11:30:55;-1.00;92.10
4433;DHT22;2229;48.708;9.706;2023-12-04T11:33:23;-0.90;92.00
4433;DHT22;2229;48.708;9.706;2023-12-04T11:35:50;-1.00;92.00
4433;DHT22;2229;48.708;9.706;2023-12-04T11:38:18;-1.00;92.00
4433;DHT22;2229;48.708;9.706;2023-12-04T11:40:46;-1.00;92.00
4433;DHT22;2229;48.708;9.706;2023-12-04T11:43:27;-1.00;92.10
4433;DHT22;2229;48.708;9.706;2023-12-04T11:46:07;-1.00;92.20
4433;DHT22;2229;48.708;9.706;2023-12-04T11:48:36;-0.90;92.30
4433;DHT22;2229;48.708;9.706;2023-12-04T11:51:05;-0.90;92.20
4433;DHT22;2229;48.708;9.706;2023-12-04T11:53:32;-0.80;92.20
4433;DHT22;2229;48.708;9.706;2023-12-04T11:56:09;-0.80;92.10
4433;DHT22;2229;48.708;9.706;2023-12-04T11:58:43;-0.70;92.20
4433;DHT22;2229;48.708;9.706;2023-12-04T12:01:10;-0.60;92.30
4433;DHT22;2229;48.708;9.706;2023-12-04T12:03:38;-0.60;92.30
4433;DHT22;2229;48.708;9.706;2023-12-04T12:06:06;-0.60;92.40
4433;DHT22;2229;48.708;9.706;2023-12-04T12:08:33;-0.60;92.20
4433;DHT22;2229;48.708;9.706;2023-12-04T12:11:00;-0.60;92.10
4433;DHT22;2229;48.708;9.706;2023-12-04T12:13:28;-0.70;92.10
4433;DHT22;2229;48.708;9.706;2023-12-04T12:15:57;-0.70;92.10
4433;DHT22;2229;48.708;9.706;2023-12-04T12:18:25;-0.80;92.30
4433;DHT22;2229;48.708;9.706;2023-12-04T12:20:55;-0.70;92.40
4433;DHT22;2229;48.708;9.706;2023-12-04T12:23:23;-0.70;92.40
4433;DHT22;2229;48.708;9.706;2023-12-04T12:25:51;-0.80;92.40
4433;DHT22;2229;48.708;9.706;2023-12-04T12:28:18;-0.80;92.50
4433;DHT22;2229;48.708;9.706;2023-12-04T12:30:46;-0.80;92.60
4433;DHT22;2229;48.708;9.706;2023-12-04T12:33:15;-0.70;92.90
4433;DHT22;2229;48.708;9.706;2023-12-04T12:35:42;-0.60;93.10
4433;DHT22;2229;48.708;9.706;2023-12-04T12:38:10;-0.60;93.30
4433;DHT22;2229;48.708;9.706;2023-12-04T12:40:37;-0.40;93.40
4433;DHT22;2229;48.708;9.706;2023-12-04T12:43:05;-0.30;93.60
4433;DHT22;2229;48.708;9.706;2023-12-04T12:45:39;-0.20;93.70
4433;DHT22;2229;48.708;9.706;2023-12-04T12:48:10;-0.10;93.70
4433;DHT22;2229;48.708;9.706;2023-12-04T12:50:39;0.10;93.70
4433;DHT22;2229;48.708;9.706;2023-12-04T12:53:06;0.20;93.70
4433;DHT22;2229;48.708;9.706;2023-12-04T12:55:33;0.30;93.70
4433;DHT22;2229;48.708;9.706;2023-12-04T12:58:03;0.40;93.80
4433;DHT22;2229;48.708;9.706;2023-12-04T13:00:34;0.40;93.60
4433;DHT22;2229;48.708;9.706;2023-12-04T13:03:02;0.40;93.20
4433;DHT22;2229;48.708;9.706;2023-12-04T13:05:29;0.30;93.10
4433;DHT22;2229;48.708;9.706;2023-12-04T13:07:58;0.20;92.90
4433;DHT22;2229;48.708;9.706;2023-12-04T13:10:25;0.10;93.10
4433;DHT22;2229;48.708;9.706;2023-12-04T13:12:52;0.10;93.20
4433;DHT22;2229;48.708;9.706;2023-12-04T13:15:22;0.00;93.30
4433;DHT22;2229;48.708;9.706;2023-12-04T13:17:49;-0.10;93.40
4433;DHT22;2229;48.708;9.706;2023-12-04T13:20:16;-0.20;93.60
4433;DHT22;2229;48.708;9.706;2023-12-04T13:22:43;-0.20;93.80
4433;DHT22;2229;48.708;9.706;2023-12-04T13:25:12;-0.30;94.00
4433;DHT22;2229;48.708;9.706;2023-12-04T13:27:39;-0.30;94.00
4433;DHT22;2229;48.708;9.706;2023-12-04T13:30:07;-0.30;94.20
4433;DHT22;2229;48.708;9.706;2023-12-04T13:32:36;-0.20;94.30
4433;DHT22;2229;48.708;9.706;2023-12-04T13:35:05;-0.20;94.40
4433;DHT22;2229;48.708;9.706;2023-12-04T13:37:34;-0.20;94.40
4433;DHT22;2229;48.708;9.706;2023-12-04T13:40:02;-0.20;94.40
4433;DHT22;2229;48.708;9.706;2023-12-04T13:42:34;-0.20;94.40
4433;DHT22;2229;48.708;9.706;2023-12-04T13:45:19;-0.30;94.40
4433;DHT22;2229;48.708;9.706;2023-12-04T13:47:47;-0.30;94.40
4433;DHT22;2229;48.708;9.706;2023-12-04T13:50:15;-0.30;94.40
4433;DHT22;2229;48.708;9.706;2023-12-04T13:52:42;-0.30;94.30
4433;DHT22;2229;48.708;9.706;2023-12-04T13:55:10;-0.40;94.20
4433;DHT22;2229;48.708;9.706;2023-12-04T13:57:46;-0.50;94.30
4433;DHT22;2229;48.708;9.706;2023-12-04T14:00:31;-0.50;94.50
4433;DHT22;2229;48.708;9.706;2023-12-04T14:02:59;-0.50;94.70
4433;DHT22;2229;48.708;9.706;2023-12-04T14:05:30;-0.60;94.70
4433;DHT22;2229;48.708;9.706;2023-12-04T14:07:57;-0.50;94.80
4433;DHT22;2229;48.708;9.706;2023-12-04T14:10:26;-0.60;94.80
4433;DHT22;2229;48.708;9.706;2023-12-04T14:12:55;-0.60;94.80
4433;DHT22;2229;48.708;9.706;2023-12-04T14:15:22;-0.60;94.90
4433;DHT22;2229;48.708;9.706;2023-12-04T14:17:50;-0.50;95.10
4433;DHT22;2229;48.708;9.706;2023-12-04T14:20:17;-0.50;95.20
4433;DHT22;2229;48.708;9.706;2023-12-04T14:22:47;-0.50;95.30
4433;DHT22;2229;48.708;9.706;2023-12-04T14:25:14;-0.40;95.40
4433;DHT22;2229;48.708;9.706;2023-12-04T14:27:41;-0.40;95.40
4433;DHT22;2229;48.708;9.706;2023-12-04T14:30:12;-0.40;95.50
4433;DHT22;2229;48.708;9.706;2023-12-04T14:32:40;-0.30;95.90
4433;DHT22;2229;48.708;9.706;2023-12-04T14:35:08;-0.30;95.70
4433;DHT22;2229;48.708;9.706;2023-12-04T14:37:35;-0.20;95.90
4433;DHT22;2229;48.708;9.706;2023-12-04T14:40:03;-0.20;95.80
4433;DHT22;2229;48.708;9.706;2023-12-04T14:42:30;-0.20;95.80
4433;DHT22;2229;48.708;9.706;2023-12-04T14:44:58;-0.20;95.80
4433;DHT22;2229;48.708;9.706;2023-12-04T14:47:27;-0.20;95.60
4433;DHT22;2229;48.708;9.706;2023-12-04T14:49:54;-0.10;95.60
4433;DHT22;2229;48.708;9.706;2023-12-04T14:52:22;-0.20;95.40
4433;DHT22;2229;48.708;9.706;2023-12-04T14:54:49;-0.20;95.20
4433;DHT22;2229;48.708;9.706;2023-12-04T14:57:38;-0.20;95.00
4433;DHT22;2229;48.708;9.706;2023-12-04T15:00:36;-0.30;94.60
4433;DHT22;2229;48.708;9.706;2023-12-04T15:03:47;-0.40;94.40
4433;DHT22;2229;48.708;9.706;2023-12-04T15:06:32;-0.50;94.40
4433;DHT22;2229;48.708;9.706;2023-12-04T15:09:09;-0.60;94.30
4433;DHT22;2229;48.708;9.706;2023-12-04T15:11:55;-0.70;94.30
4433;DHT22;2229;48.708;9.706;2023-12-04T15:14:48;-0.70;94.30
4433;DHT22;2229;48.708;9.706;2023-12-04T15:17:21;-0.80;94.50
4433;DHT22;2229;48.708;9.706;2023-12-04T15:19:58;-0.80;94.60
4433;DHT22;2229;48.708;9.706;2023-12-04T15:22:46;-0.80;94.60
4433;DHT22;2229;48.708;9.706;2023-12-04T15:25:13;-0.80;94.70
4433;DHT22;2229;48.708;9.706;2023-12-04T15:27:39;-0.80;94.70
4433;DHT22;2229;48.708;9.706;2023-12-04T15:30:08;-0.80;94.80
4433;DHT22;2229;48.708;9.706;2023-12-04T15:32:34;-0.80;94.80
4433;DHT22;2229;48.708;9.706;2023-12-04T15:35:03;-0.80;94.70
4433;DHT22;2229;48.708;9.706;2023-12-04T15:37:30;-0.80;94.60
4433;DHT22;2229;48.708;9.706;2023-12-04T15:39:57;-0.80;94.60
4433;DHT22;2229;48.708;9.706;2023-12-04T15:42:24;-0.80;94.60
4433;DHT22;2229;48.708;9.706;2023-12-04T15:44:53;-0.80;94.90
4433;DHT22;2229;48.708;9.706;2023-12-04T15:47:19;-0.80;94.90
4433;DHT22;2229;48.708;9.706;2023-12-04T15:49:47;-0.80;94.90
4433;DHT22;2229;48.708;9.706;2023-12-04T15:52:16;-0.80;94.80
4433;DHT22;2229;48.708;9.706;2023-12-04T15:54:44;-0.80;94.90
4433;DHT22;2229;48.708;9.706;2023-12-04T15:57:12;-0.80;95.00
4433;DHT22;2229;48.708;9.706;2023-12-04T15:59:38;-0.80;95.10
4433;DHT22;2229;48.708;9.706;2023-12-04T16:02:05;-0.90;94.90
4433;DHT22;2229;48.708;9.706;2023-12-04T16:04:32;-0.90;94.90
4433;DHT22;2229;48.708;9.706;2023-12-04T16:07:01;-0.80;95.40
4433;DHT22;2229;48.708;9.706;2023-12-04T16:09:29;-0.70;95.60
4433;DHT22;2229;48.708;9.706;2023-12-04T16:11:57;-0.70;95.40